Time;durP1;ratioP1;P1;durP2;ratioP2;P2;SDS_P1;SDS_P2;PMS_P1;PMS_P2;Temp;Humidity;BMP_temperature;BMP_pressure;BME280_temperature;BME280_humidity;BME280_pressure;Samples;Min_cycle;Max_cycle;Signal;HPM_P1;HPM_P2
2021/11/10 00:01:45;;;;;;;57.10;25.80;;;;;;;2.64;80.91;101732.11;103005;1312;25424;-60
2021/11/10 00:04:16;;;;;;;57.60;26.00;;;;;;;2.61;81.05;101731.38;103037;1316;23133;-59
2021/11/10 00:06:47;;;;;;;58.60;29.10;;;;;;;2.59;81.10;101723.59;102931;1311;24303;-60
2021/11/10 00:09:18;;;;;;;65.30;29.80;;;;;;;2.58;81.12;101727.44;103207;1315;24554;-60
2021/11/10 00:11:49;;;;;;;74.00;35.00;;;;;;;2.53;81.06;101732.52;102948;1309;24311;-60
2021/11/10 00:14:20;;;;;;;74.50;35.50;;;;;;;2.47;81.11;101736.92;102959;1310;22603;-60
2021/11/10 00:16:52;;;;;;;73.20;33.80;;;;;;;2.44;81.13;101731.80;103147;1311;24336;-60
2021/11/10 00:19:24;;;;;;;79.30;37.90;;;;;;;2.42;81.16;101730.30;103171;1311;22700;-60
2021/11/10 00:21:54;;;;;;;82.40;36.70;;;;;;;2.39;81.46;101724.38;103171;1312;22645;-60
2021/11/10 00:24:25;;;;;;;82.40;39.30;;;;;;;2.36;81.33;101722.46;103118;1311;23956;-59
2021/11/10 00:27:00;;;;;;;81.30;37.10;;;;;;;2.32;81.33;101720.09;102810;1314;367069;-62
2021/11/10 00:29:31;;;;;;;84.20;36.40;;;;;;;2.27;81.09;101719.29;103108;1310;22643;-60
2021/11/10 00:32:03;;;;;;;84.70;36.80;;;;;;;2.24;81.29;101709.11;103007;1312;24319;-60
2021/11/10 00:34:35;;;;;;;75.70;34.00;;;;;;;2.21;81.18;101714.69;103190;1317;22686;-60
2021/11/10 00:37:07;;;;;;;74.40;33.40;;;;;;;2.16;81.13;101707.59;102922;1312;25252;-60
2021/11/10 00:39:38;;;;;;;79.90;34.90;;;;;;;2.12;81.17;101699.60;103026;1311;24946;-60
2021/11/10 00:42:09;;;;;;;75.90;34.20;;;;;;;2.10;81.12;101701.02;102903;1311;22558;-60
2021/11/10 00:44:40;;;;;;;79.20;33.30;;;;;;;2.06;81.14;101702.33;103113;1310;23968;-60
2021/11/10 00:47:12;;;;;;;73.80;32.40;;;;;;;2.05;81.30;101697.92;103129;1311;23270;-60
2021/11/10 00:49:42;;;;;;;70.10;31.20;;;;;;;2.03;81.26;101692.25;102981;1312;25332;-60
2021/11/10 00:52:13;;;;;;;72.50;31.60;;;;;;;2.01;81.33;101686.63;102948;1311;22682;-60
2021/11/10 00:54:44;;;;;;;77.70;33.60;;;;;;;1.99;81.47;101686.95;102898;1311;22988;-62
2021/11/10 00:57:15;;;;;;;78.40;35.20;;;;;;;2.00;81.49;101687.04;102924;1311;24306;-60
2021/11/10 00:59:49;;;;;;;89.00;38.80;;;;;;;2.00;81.53;101683.02;103004;1309;25281;-60
2021/11/10 01:02:20;;;;;;;82.70;36.40;;;;;;;2.01;81.50;101677.59;102758;1311;24227;-59
2021/11/10 01:04:51;;;;;;;81.30;36.70;;;;;;;2.02;81.57;101668.56;103036;1317;22574;-61
2021/11/10 01:07:21;;;;;;;79.90;34.70;;;;;;;2.00;81.49;101659.17;103145;1316;25285;-60
2021/11/10 01:09:58;;;;;;;84.00;37.10;;;;;;;1.98;81.50;101653.27;102911;1310;25302;-60
2021/11/10 01:12:29;;;;;;;78.30;34.60;;;;;;;1.97;81.59;101653.96;103014;1311;22675;-60
2021/11/10 01:15:01;;;;;;;80.30;36.40;;;;;;;1.95;81.57;101654.44;102914;1311;24292;-60
2021/11/10 01:17:32;;;;;;;81.10;36.00;;;;;;;1.94;81.83;101658.13;102973;1311;22941;-60
2021/11/10 01:20:02;;;;;;;76.40;35.60;;;;;;;1.93;81.82;101653.48;102925;1310;22574;-60
2021/11/10 01:22:33;;;;;;;81.20;38.20;;;;;;;1.95;81.81;101645.63;102992;1316;22587;-60
2021/11/10 01:25:05;;;;;;;76.40;35.10;;;;;;;1.95;81.91;101638.61;102976;1312;22596;-60
2021/11/10 01:27:37;;;;;;;75.90;35.90;;;;;;;1.94;81.86;101633.73;103168;1311;22651;-60
2021/11/10 01:30:11;;;;;;;73.80;35.40;;;;;;;1.93;81.73;101635.45;103106;1312;23079;-59
2021/11/10 01:32:43;;;;;;;77.40;34.60;;;;;;;1.92;81.64;101623.41;103067;1311;22602;-59
2021/11/10 01:35:14;;;;;;;81.90;36.10;;;;;;;1.90;81.88;101627.27;103088;1310;22555;-59
2021/11/10 01:37:46;;;;;;;78.30;35.30;;;;;;;1.91;82.15;101620.65;103060;1309;24239;-60
2021/11/10 01:40:19;;;;;;;80.90;35.40;;;;;;;1.93;82.34;101618.62;102936;1314;22577;-59
2021/11/10 01:42:51;;;;;;;76.20;36.10;;;;;;;1.94;82.44;101614.92;103090;1310;22794;-60
2021/11/10 01:45:22;;;;;;;84.90;39.70;;;;;;;1.96;82.54;101612.34;102990;1311;24053;-60
2021/11/10 01:47:53;;;;;;;76.40;35.20;;;;;;;1.96;82.76;101608.25;102923;1311;24124;-60
2021/11/10 01:50:24;;;;;;;75.20;37.00;;;;;;;1.97;82.74;101608.80;102995;1311;22584;-60
2021/11/10 01:52:55;;;;;;;83.70;37.70;;;;;;;1.97;82.73;101608.95;102962;1309;22635;-60
2021/11/10 01:55:27;;;;;;;80.60;38.10;;;;;;;1.97;82.74;101615.65;102964;1310;25272;-60
2021/11/10 01:57:58;;;;;;;86.60;41.00;;;;;;;1.96;82.82;101613.21;103141;1311;22545;-60
2021/11/10 02:00:31;;;;;;;84.30;38.00;;;;;;;1.96;82.72;101606.44;103083;1315;25496;-60
2021/11/10 02:03:03;;;;;;;74.30;33.20;;;;;;;1.89;82.40;101606.89;102980;1310;23281;-60
2021/11/10 02:05:34;;;;;;;75.60;33.00;;;;;;;1.73;81.78;101608.06;103107;1311;22696;-60
2021/11/10 02:08:07;;;;;;;74.20;31.70;;;;;;;1.57;81.78;101609.23;103063;1317;24328;-60
2021/11/10 02:10:38;;;;;;;75.90;31.20;;;;;;;1.52;81.96;101616.05;103054;1317;25292;-60
2021/11/10 02:13:09;;;;;;;75.10;32.60;;;;;;;1.48;81.85;101622.01;102992;1311;22562;-60
2021/11/10 02:15:40;;;;;;;70.40;31.00;;;;;;;1.43;81.80;101614.81;103043;1312;22590;-60
2021/11/10 02:18:10;;;;;;;63.00;29.50;;;;;;;1.37;81.70;101608.73;103054;1316;24187;-60
2021/11/10 02:20:41;;;;;;;62.10;28.00;;;;;;;1.31;81.51;101602.09;102971;1311;22566;-60
2021/11/10 02:23:12;;;;;;;68.50;28.80;;;;;;;1.26;81.57;101603.77;103077;1316;22555;-60
2021/11/10 02:25:43;;;;;;;68.00;30.20;;;;;;;1.23;81.56;101606.43;103208;1311;24749;-60
2021/11/10 02:28:15;;;;;;;77.40;31.80;;;;;;;1.22;81.64;101601.63;103236;1311;22577;-59
2021/11/10 02:30:45;;;;;;;68.50;31.70;;;;;;;1.21;81.62;101599.81;103000;1311;25381;-60
2021/11/10 02:33:29;;;;;;;77.80;34.80;;;;;;;1.19;81.67;101597.77;103043;1310;22590;-59
2021/11/10 02:36:07;;;;;;;78.50;35.10;;;;;;;1.17;81.67;101594.45;102852;1310;22640;-60
2021/11/10 02:38:38;;;;;;;72.30;33.70;;;;;;;1.16;81.77;101592.80;103123;1311;22617;-60
2021/11/10 02:41:10;;;;;;;78.20;36.20;;;;;;;1.14;81.82;101587.20;103118;1317;22581;-60
2021/11/10 02:43:41;;;;;;;74.20;33.50;;;;;;;1.15;81.94;101582.73;103121;1311;22790;-60
2021/11/10 02:46:11;;;;;;;84.10;36.10;;;;;;;1.14;81.99;101580.20;103027;1312;22603;-59
2021/11/10 02:48:42;;;;;;;77.60;34.80;;;;;;;1.17;82.14;101577.31;102930;1312;22691;-59
2021/11/10 02:51:14;;;;;;;73.90;33.50;;;;;;;1.18;82.03;101576.23;103048;1311;22574;-60
2021/11/10 02:53:46;;;;;;;71.40;31.80;;;;;;;1.17;81.95;101570.33;103092;1312;24276;-60
2021/11/10 02:56:16;;;;;;;79.80;35.00;;;;;;;1.16;81.78;101570.39;103023;1310;25490;-60
2021/11/10 02:58:48;;;;;;;80.80;34.10;;;;;;;1.14;81.97;101570.77;103088;1316;23816;-60
2021/11/10 03:01:19;;;;;;;75.90;34.30;;;;;;;1.13;81.98;101565.81;102972;1316;24132;-60
2021/11/10 03:03:49;;;;;;;78.50;34.70;;;;;;;1.12;82.01;101559.91;103010;1314;25330;-60
2021/11/10 03:06:20;;;;;;;78.90;34.90;;;;;;;1.12;82.13;101553.39;103000;1310;22580;-60
2021/11/10 03:08:51;;;;;;;90.90;38.90;;;;;;;1.15;82.19;101550.43;103086;1310;24327;-60
2021/11/10 03:11:22;;;;;;;80.30;36.40;;;;;;;1.16;82.12;101548.46;103088;1312;22632;-60
2021/11/10 03:13:53;;;;;;;82.90;38.00;;;;;;;1.15;82.08;101547.60;103062;1311;22652;-60
2021/11/10 03:16:24;;;;;;;78.90;37.00;;;;;;;1.13;82.08;101548.21;103042;1312;22606;-59
2021/11/10 03:18:54;;;;;;;80.10;37.10;;;;;;;1.11;82.08;101550.02;103070;1316;27693;-60
2021/11/10 03:21:26;;;;;;;76.60;37.30;;;;;;;1.10;82.06;101548.59;103153;1311;25631;-60
2021/11/10 03:23:57;;;;;;;76.50;36.40;;;;;;;1.10;82.26;101545.27;102942;1316;22577;-60
2021/11/10 03:26:27;;;;;;;84.50;37.90;;;;;;;1.11;82.43;101550.32;103101;1311;22880;-59
2021/11/10 03:29:02;;;;;;;78.10;34.90;;;;;;;1.12;82.55;101550.88;102986;1317;22673;-60
2021/11/10 03:31:36;;;;;;;84.20;37.40;;;;;;;1.13;82.61;101553.48;103036;1317;24346;-59
2021/11/10 03:34:09;;;;;;;85.10;38.40;;;;;;;1.15;82.80;101549.09;103040;1311;24197;-59
2021/11/10 03:36:41;;;;;;;82.60;38.20;;;;;;;1.17;82.84;101546.28;103001;1312;22583;-59
2021/11/10 03:39:15;;;;;;;80.80;39.70;;;;;;;1.20;82.99;101544.31;102970;1311;22573;-60
2021/11/10 03:41:47;;;;;;;76.40;36.00;;;;;;;1.22;83.10;101547.00;102631;1314;22570;-59
2021/11/10 03:44:17;;;;;;;75.40;33.60;;;;;;;1.23;83.19;101542.14;102683;1317;22586;-60
2021/11/10 03:46:48;;;;;;;89.70;37.10;;;;;;;1.25;83.12;101544.27;102604;1313;25270;-59
2021/11/10 03:49:21;;;;;;;83.40;36.00;;;;;;;1.26;83.03;101537.84;102647;1313;24293;-60
2021/11/10 03:51:53;;;;;;;90.80;41.50;;;;;;;1.24;82.99;101536.72;102732;1317;24366;-59
2021/11/10 03:54:24;;;;;;;89.40;37.70;;;;;;;1.23;82.82;101539.55;102808;1313;25274;-60
2021/11/10 03:56:54;;;;;;;82.90;36.30;;;;;;;1.22;82.78;101532.15;102738;1314;25500;-59
2021/11/10 03:59:26;;;;;;;74.30;32.70;;;;;;;1.17;82.41;101530.23;102518;1314;22593;-60
2021/11/10 04:01:57;;;;;;;73.30;32.20;;;;;;;1.11;82.34;101531.15;102603;1317;25260;-60
2021/11/10 04:04:28;;;;;;;80.30;34.60;;;;;;;1.05;82.17;101529.30;102586;1313;22706;-60
2021/11/10 04:06:59;;;;;;;79.40;35.80;;;;;;;1.01;82.21;101526.61;102594;1313;25549;-60
2021/11/10 04:09:30;;;;;;;79.90;35.50;;;;;;;0.99;82.37;101528.31;102573;1314;22596;-59
2021/11/10 04:12:01;;;;;;;84.90;35.50;;;;;;;0.95;82.33;101535.44;102640;1318;22610;-60
2021/11/10 04:14:32;;;;;;;90.60;45.80;;;;;;;0.93;82.36;101530.16;102747;1315;22561;-60
2021/11/10 04:17:05;;;;;;;107.90;57.30;;;;;;;0.91;82.38;101535.80;102987;1313;24231;-59
2021/11/10 04:19:38;;;;;;;99.50;55.30;;;;;;;0.89;82.44;101534.70;102835;1315;23023;-60
2021/11/10 04:22:09;;;;;;;100.00;52.50;;;;;;;0.88;82.57;101534.61;102656;1314;22759;-62
2021/11/10 04:24:40;;;;;;;92.10;46.40;;;;;;;0.87;82.68;101529.64;102658;1313;24271;-60
2021/11/10 04:27:11;;;;;;;82.30;40.80;;;;;;;0.89;82.47;101532.26;102580;1314;25115;-61
2021/11/10 04:29:42;;;;;;;81.30;39.90;;;;;;;0.89;82.51;101533.20;102619;1313;25661;-59
2021/11/10 04:32:12;;;;;;;94.60;45.30;;;;;;;0.87;82.40;101521.72;102596;1314;25879;-60
2021/11/10 04:34:43;;;;;;;80.50;39.70;;;;;;;0.84;82.39;101518.56;102645;1314;22596;-59
2021/11/10 04:37:16;;;;;;;77.90;36.40;;;;;;;0.81;82.34;101520.11;102611;1315;25443;-59
2021/11/10 04:39:47;;;;;;;81.30;36.70;;;;;;;0.76;82.28;101521.34;102661;1313;22623;-58
2021/11/10 04:42:19;;;;;;;81.70;36.80;;;;;;;0.74;82.36;101517.48;103023;1311;22588;-60
2021/11/10 04:44:55;;;;;;;84.80;39.50;;;;;;;0.72;82.41;101517.84;103019;1310;24388;-60
2021/11/10 04:47:26;;;;;;;84.50;37.00;;;;;;;0.70;82.41;101516.09;102982;1311;22571;-60
2021/11/10 04:49:57;;;;;;;85.80;39.90;;;;;;;0.69;82.28;101518.36;103050;1318;25431;-60
2021/11/10 04:52:29;;;;;;;84.60;40.40;;;;;;;0.68;82.39;101518.83;103006;1311;22655;-60
2021/11/10 04:54:59;;;;;;;85.90;39.30;;;;;;;0.67;82.27;101522.83;102927;1311;22595;-60
2021/11/10 04:57:31;;;;;;;83.40;38.00;;;;;;;0.65;82.07;101521.94;102985;1311;22607;-59
2021/11/10 05:00:02;;;;;;;86.00;37.90;;;;;;;0.58;81.87;101524.65;102987;1310;22696;-60
2021/11/10 05:02:36;;;;;;;82.40;36.50;;;;;;;0.54;81.86;101521.30;102964;1312;27097;-64
2021/11/10 05:05:08;;;;;;;78.10;36.20;;;;;;;0.51;82.04;101518.84;102921;1311;24807;-59
2021/11/10 05:07:40;;;;;;;71.20;31.30;;;;;;;0.48;82.09;101519.61;103160;1312;22642;-64
2021/11/10 05:10:12;;;;;;;80.70;35.50;;;;;;;0.45;82.09;101518.97;102644;1314;25410;-60
2021/11/10 05:12:43;;;;;;;70.80;34.50;;;;;;;0.41;81.98;101506.75;103149;1312;22563;-59
2021/11/10 05:15:14;;;;;;;91.20;37.40;;;;;;;0.36;81.93;101504.36;102994;1310;22598;-58
2021/11/10 05:17:45;;;;;;;92.10;40.00;;;;;;;0.34;82.17;101498.84;102969;1312;22561;-59
2021/11/10 05:20:16;;;;;;;91.10;40.70;;;;;;;0.33;82.27;101498.90;103026;1312;22590;-60
2021/11/10 05:22:46;;;;;;;99.70;44.00;;;;;;;0.31;82.17;101498.52;102994;1312;25568;-55
2021/11/10 05:25:18;;;;;;;101.20;48.50;;;;;;;0.29;82.22;101495.34;102820;1311;24330;-60
2021/11/10 05:27:49;;;;;;;109.00;49.50;;;;;;;0.27;82.32;101491.02;103101;1311;25585;-59
2021/11/10 05:30:20;;;;;;;99.10;47.60;;;;;;;0.26;82.42;101488.98;103143;1312;22733;-59
2021/11/10 05:32:51;;;;;;;98.60;44.00;;;;;;;0.24;82.39;101484.33;103056;1314;22670;-59
2021/11/10 05:35:22;;;;;;;104.80;46.40;;;;;;;0.22;82.42;101483.61;102988;1312;24270;-56
2021/11/10 05:37:53;;;;;;;102.20;44.60;;;;;;;0.23;82.42;101479.84;103031;1313;25576;-59
2021/11/10 05:40:24;;;;;;;93.30;43.60;;;;;;;0.23;82.55;101476.93;103173;1310;22979;-59
2021/11/10 05:42:56;;;;;;;94.90;43.80;;;;;;;0.23;82.63;101475.13;103132;1312;25435;-59
2021/11/10 05:45:27;;;;;;;90.80;42.30;;;;;;;0.24;82.74;101469.48;103313;1311;24468;-59
2021/11/10 05:47:58;;;;;;;84.30;39.30;;;;;;;0.23;82.62;101464.84;103138;1311;22680;-59
2021/11/10 05:50:29;;;;;;;86.50;41.90;;;;;;;0.22;82.59;101465.95;103121;1310;22668;-59
2021/11/10 05:53:00;;;;;;;83.50;39.80;;;;;;;0.22;82.60;101463.91;103190;1316;25487;-60
2021/11/10 05:55:31;;;;;;;91.00;39.20;;;;;;;0.23;82.92;101458.49;102978;1309;22577;-59
2021/11/10 05:58:03;;;;;;;86.80;40.00;;;;;;;0.25;82.92;101460.16;102963;1311;25667;-59
2021/11/10 06:00:35;;;;;;;89.90;36.80;;;;;;;0.28;83.04;101464.34;103435;1310;25609;-60
2021/11/10 06:03:06;;;;;;;82.70;37.80;;;;;;;0.29;82.96;101471.41;103502;1316;24847;-60
2021/11/10 06:05:37;;;;;;;84.50;36.70;;;;;;;0.31;83.00;101468.67;102921;1316;25477;-60
2021/11/10 06:08:09;;;;;;;84.80;36.40;;;;;;;0.31;82.88;101459.35;102863;1311;22866;-60
2021/11/10 06:10:40;;;;;;;73.90;34.70;;;;;;;0.31;82.92;101465.38;102934;1311;24312;-59
2021/11/10 06:13:11;;;;;;;83.00;36.60;;;;;;;0.30;82.90;101463.41;103070;1311;25467;-60
2021/11/10 06:15:41;;;;;;;87.90;39.20;;;;;;;0.29;83.00;101466.47;103021;1312;26405;-60
2021/11/10 06:18:13;;;;;;;85.20;39.30;;;;;;;0.30;82.85;101465.84;102700;1310;22636;-60
2021/11/10 06:20:44;;;;;;;86.80;39.20;;;;;;;0.30;83.00;101459.34;102945;1316;25727;-61
2021/11/10 06:23:15;;;;;;;83.50;38.50;;;;;;;0.33;83.16;101461.87;102820;1310;25538;-65
2021/11/10 06:25:46;;;;;;;79.70;35.70;;;;;;;0.36;83.41;101458.77;102894;1311;24403;-60
2021/11/10 06:28:17;;;;;;;82.10;38.50;;;;;;;0.40;83.53;101457.08;102536;1311;24240;-60
2021/11/10 06:30:48;;;;;;;83.00;36.90;;;;;;;0.44;83.73;101455.84;102903;1311;22640;-60
2021/11/10 06:33:19;;;;;;;77.70;36.80;;;;;;;0.48;83.92;101453.21;102835;1311;23844;-60
2021/11/10 06:35:49;;;;;;;75.90;34.60;;;;;;;0.53;84.01;101460.14;102840;1311;22643;-60
2021/11/10 06:38:21;;;;;;;77.90;34.50;;;;;;;0.58;83.90;101463.71;102834;1311;25595;-60
2021/11/10 06:40:53;;;;;;;67.40;31.50;;;;;;;0.63;84.22;101465.02;103083;1311;25285;-60
2021/11/10 06:43:26;;;;;;;77.60;34.20;;;;;;;0.67;84.26;101469.98;102910;1312;26676;-60
2021/11/10 06:45:56;;;;;;;75.40;37.70;;;;;;;0.71;84.39;101470.95;103157;1311;22606;-60
2021/11/10 06:48:29;;;;;;;78.70;36.40;;;;;;;0.74;84.46;101473.27;102851;1311;22643;-60
2021/11/10 06:51:00;;;;;;;75.70;36.60;;;;;;;0.79;84.58;101469.44;102963;1311;22641;-60
2021/11/10 06:53:30;;;;;;;78.70;33.80;;;;;;;0.84;84.65;101465.06;102821;1316;22658;-60
2021/11/10 06:56:02;;;;;;;81.70;35.10;;;;;;;0.88;84.70;101463.38;102898;1316;22584;-60
2021/11/10 06:58:34;;;;;;;72.60;33.60;;;;;;;0.92;84.94;101459.94;103363;1312;22641;-61
2021/11/10 07:01:06;;;;;;;78.40;35.40;;;;;;;0.97;85.02;101462.24;102908;1310;22564;-60
2021/11/10 07:03:37;;;;;;;77.80;35.30;;;;;;;1.01;85.09;101464.30;103132;1315;22785;-61
2021/11/10 07:06:08;;;;;;;75.70;37.20;;;;;;;1.05;85.06;101463.38;103015;1312;24323;-61
2021/11/10 07:08:39;;;;;;;84.80;38.10;;;;;;;1.09;85.07;101464.73;103030;1309;25719;-60
2021/11/10 07:11:10;;;;;;;76.50;35.60;;;;;;;1.13;85.11;101464.61;102855;1309;23091;-60
2021/11/10 07:13:42;;;;;;;75.00;33.60;;;;;;;1.17;85.04;101462.97;102950;1311;22593;-60
2021/11/10 07:16:12;;;;;;;75.80;33.30;;;;;;;1.20;84.98;101455.98;103104;1311;22671;-61
2021/11/10 07:18:43;;;;;;;70.20;32.80;;;;;;;1.23;85.11;101451.77;102966;1310;23027;-62
2021/11/10 07:21:14;;;;;;;68.30;32.50;;;;;;;1.25;85.23;101450.82;103031;1314;22560;-60
2021/11/10 07:23:45;;;;;;;73.80;32.60;;;;;;;1.28;85.31;101453.59;103163;1311;22828;-62
2021/11/10 07:26:16;;;;;;;76.70;33.70;;;;;;;1.33;85.49;101449.29;102851;1311;24416;-63
2021/11/10 07:28:47;;;;;;;79.40;36.10;;;;;;;1.38;85.66;101447.35;103133;1312;24340;-62
2021/11/10 07:31:18;;;;;;;86.50;36.90;;;;;;;1.42;85.70;101445.15;103053;1311;22705;-62
2021/11/10 07:33:49;;;;;;;86.90;40.50;;;;;;;1.46;85.80;101444.54;102955;1311;22579;-62
2021/11/10 07:36:22;;;;;;;85.40;39.40;;;;;;;1.51;85.90;101443.46;103021;1309;23411;-62
2021/11/10 07:38:55;;;;;;;83.30;36.60;;;;;;;1.56;85.96;101444.41;103473;1315;25552;-61
2021/11/10 07:41:28;;;;;;;81.90;35.00;;;;;;;1.61;85.91;101446.08;103089;1311;22625;-63
2021/11/10 07:44:00;;;;;;;78.10;34.60;;;;;;;1.66;85.90;101449.88;103154;1313;25497;-61
2021/11/10 07:46:33;;;;;;;78.60;36.90;;;;;;;1.71;85.97;101448.23;103372;1310;22727;-60
2021/11/10 07:49:05;;;;;;;99.20;44.20;;;;;;;1.77;86.09;101451.55;103026;1311;25543;-62
2021/11/10 07:51:36;;;;;;;101.40;48.80;;;;;;;1.83;86.37;101455.65;103204;1311;25572;-59
2021/11/10 07:54:07;;;;;;;105.90;48.70;;;;;;;1.88;86.35;101450.08;103049;1311;25468;-60
2021/11/10 07:56:38;;;;;;;96.60;45.10;;;;;;;1.96;86.49;101446.31;102870;1311;23128;-64
2021/11/10 07:59:09;;;;;;;82.40;38.70;;;;;;;2.02;86.52;101448.28;103067;1312;26040;-60
2021/11/10 08:01:40;;;;;;;79.10;35.90;;;;;;;2.09;86.70;101445.54;102948;1317;26778;-61
2021/11/10 08:04:11;;;;;;;73.50;36.90;;;;;;;2.17;86.98;101452.39;102998;1317;26849;-61
2021/11/10 08:06:42;;;;;;;75.70;35.30;;;;;;;2.25;86.99;101452.77;102939;1311;24215;-61
2021/11/10 08:09:12;;;;;;;69.40;33.70;;;;;;;2.33;87.06;101453.27;102901;1312;22580;-61
2021/11/10 08:11:43;;;;;;;68.80;33.30;;;;;;;2.41;87.28;101455.23;102956;1311;24407;-61
2021/11/10 08:14:14;;;;;;;63.60;29.90;;;;;;;2.51;87.46;101451.91;103056;1316;26628;-61
2021/11/10 08:16:45;;;;;;;70.10;31.20;;;;;;;2.62;87.85;101449.08;102967;1311;23139;-60
2021/11/10 08:19:16;;;;;;;68.80;31.70;;;;;;;2.72;87.77;101453.46;102990;1310;22671;-61
2021/11/10 08:21:47;;;;;;;66.40;29.50;;;;;;;2.81;87.83;101454.48;102933;1311;27576;-62
2021/11/10 08:24:18;;;;;;;66.10;28.60;;;;;;;2.90;87.83;101451.30;102932;1311;22557;-61
2021/11/10 08:26:49;;;;;;;61.00;28.70;;;;;;;2.99;87.94;101446.01;102852;1309;305488;-61
2021/11/10 08:29:20;;;;;;;66.30;29.70;;;;;;;3.08;87.95;101441.00;103181;1312;25539;-62
2021/11/10 08:31:51;;;;;;;64.50;30.10;;;;;;;3.16;88.00;101442.79;102996;1318;22617;-62
2021/11/10 08:34:22;;;;;;;58.50;28.80;;;;;;;3.27;88.18;101444.73;103683;1302;22634;-58
2021/11/10 08:36:54;;;;;;;61.10;25.70;;;;;;;3.37;87.84;101449.58;103360;1310;24321;-59
2021/11/10 08:39:25;;;;;;;63.30;28.50;;;;;;;3.45;87.97;101444.34;102956;1316;22590;-58
2021/11/10 08:41:56;;;;;;;61.10;26.00;;;;;;;3.56;88.32;101446.02;102982;1312;22593;-58
2021/11/10 08:44:28;;;;;;;52.20;24.10;;;;;;;3.66;88.13;101444.23;102975;1312;22568;-57
2021/11/10 08:47:00;;;;;;;54.30;23.40;;;;;;;3.74;88.00;101442.68;103113;1317;25585;-58
2021/11/10 08:49:35;;;;;;;52.10;24.60;;;;;;;3.81;88.13;101445.71;103044;1312;25893;-59
2021/11/10 08:52:08;;;;;;;49.30;23.30;;;;;;;3.90;88.02;101440.38;102920;1312;25454;-59
2021/11/10 08:54:39;;;;;;;53.60;23.70;;;;;;;3.96;87.95;101438.67;102859;1309;23744;-60
2021/11/10 08:57:10;;;;;;;48.80;21.80;;;;;;;4.04;88.15;101438.00;102899;1313;24223;-60
2021/11/10 08:59:42;;;;;;;45.30;21.50;;;;;;;4.12;88.19;101437.63;102919;1310;22778;-60
2021/11/10 09:02:14;;;;;;;41.00;18.40;;;;;;;4.20;88.04;101441.41;102993;1310;25254;-59
2021/11/10 09:04:45;;;;;;;39.80;18.20;;;;;;;4.26;87.76;101436.48;103189;1316;24215;-59
2021/11/10 09:07:17;;;;;;;37.70;17.00;;;;;;;4.32;87.84;101439.66;103004;1310;22587;-60
2021/11/10 09:09:48;;;;;;;38.40;16.10;;;;;;;4.40;87.86;101437.86;103120;1312;23039;-58
2021/11/10 09:12:19;;;;;;;42.00;17.60;;;;;;;4.47;87.92;101437.96;103183;1313;22574;-59
2021/11/10 09:14:50;;;;;;;35.80;17.60;;;;;;;4.53;87.72;101436.95;103039;1312;25370;-57
2021/11/10 09:17:22;;;;;;;39.80;15.50;;;;;;;4.60;87.95;101435.23;102932;1312;26498;-59
2021/11/10 09:19:54;;;;;;;37.40;16.10;;;;;;;4.71;87.84;101431.57;103032;1315;22593;-58
2021/11/10 09:22:25;;;;;;;35.80;14.80;;;;;;;4.77;87.67;101434.66;103577;1312;22729;-57
2021/11/10 09:24:56;;;;;;;34.60;14.70;;;;;;;4.88;87.55;101432.51;103052;1316;22561;-59
2021/11/10 09:27:27;;;;;;;36.90;15.00;;;;;;;4.97;87.39;101429.55;102890;1310;23012;-59
2021/11/10 09:29:59;;;;;;;35.60;14.40;;;;;;;5.04;87.29;101425.68;102923;1312;23138;-60
2021/11/10 09:32:30;;;;;;;33.00;13.80;;;;;;;5.09;87.17;101424.59;102953;1310;22584;-59
2021/11/10 09:35:06;;;;;;;28.80;12.00;;;;;;;5.16;87.07;101419.93;103246;1316;22577;-58
2021/11/10 09:37:38;;;;;;;33.70;12.90;;;;;;;5.20;86.78;101418.77;103175;1314;24244;-59
2021/11/10 09:40:12;;;;;;;31.90;13.00;;;;;;;5.26;86.77;101417.75;103257;1310;22637;-59
2021/11/10 09:42:45;;;;;;;30.20;12.20;;;;;;;5.32;86.83;101422.89;103338;1314;26574;-59
2021/11/10 09:45:25;;;;;;;28.00;10.90;;;;;;;5.39;86.66;101425.17;103198;1312;22689;-59
2021/11/10 09:47:56;;;;;;;28.70;9.80;;;;;;;5.48;86.61;101422.75;103161;1310;22599;-60
2021/11/10 09:50:28;;;;;;;30.40;12.20;;;;;;;5.56;86.58;101426.99;103151;1312;22614;-60
2021/11/10 09:53:00;;;;;;;31.30;12.10;;;;;;;5.64;86.37;101428.48;103289;1318;22607;-60
2021/11/10 09:55:32;;;;;;;29.50;12.30;;;;;;;5.69;86.40;101417.81;103393;1310;24800;-60
2021/11/10 09:58:04;;;;;;;30.00;11.50;;;;;;;5.77;86.59;101416.04;103254;1309;23960;-60
2021/11/10 10:00:40;;;;;;;32.70;14.00;;;;;;;5.85;86.60;101419.25;103192;1310;24245;-59
2021/11/10 10:03:14;;;;;;;31.40;13.30;;;;;;;5.91;86.66;101420.94;103029;1310;22662;-58
2021/11/10 10:05:46;;;;;;;33.10;12.80;;;;;;;5.95;86.42;101419.67;103177;1310;25287;-60
2021/11/10 10:08:18;;;;;;;27.70;12.10;;;;;;;6.03;86.66;101418.44;103516;1309;25078;-59
2021/11/10 10:10:50;;;;;;;34.50;12.00;;;;;;;6.13;86.24;101412.89;103248;1316;22880;-59
2021/11/10 10:13:22;;;;;;;27.00;10.40;;;;;;;6.19;85.63;101409.48;103178;1315;25493;-59
2021/11/10 10:15:53;;;;;;;25.90;9.50;;;;;;;6.22;85.25;101409.89;103055;1309;22590;-60
2021/11/10 10:18:26;;;;;;;28.20;9.80;;;;;;;6.29;85.14;101407.48;103079;1309;24383;-59
2021/11/10 10:20:59;;;;;;;26.50;9.60;;;;;;;6.34;84.97;101407.64;103231;1309;22589;-59
2021/11/10 10:23:33;;;;;;;23.30;10.40;;;;;;;6.41;84.98;101397.76;103042;1313;22545;-59
2021/11/10 10:26:11;;;;;;;25.00;10.20;;;;;;;6.45;84.87;101394.30;103281;1314;22559;-60
2021/11/10 10:28:44;;;;;;;24.70;9.00;;;;;;;6.52;84.70;101390.05;103116;1314;22827;-59
2021/11/10 10:31:18;;;;;;;25.70;10.60;;;;;;;6.66;84.45;101384.64;103221;1309;22981;-60
2021/11/10 10:33:52;;;;;;;28.20;9.60;;;;;;;6.79;84.41;101381.54;103185;1309;25405;-59
2021/11/10 10:36:26;;;;;;;21.20;7.50;;;;;;;6.96;83.99;101386.50;103575;1313;24275;-59
2021/11/10 10:38:59;;;;;;;22.30;8.10;;;;;;;7.09;83.52;101371.41;103330;1309;22638;-60
2021/11/10 10:41:34;;;;;;;22.10;7.40;;;;;;;7.18;83.34;101371.86;103466;1310;25287;-60
2021/11/10 10:44:08;;;;;;;20.60;7.00;;;;;;;7.29;83.16;101374.63;103197;1316;22733;-60
2021/11/10 10:46:42;;;;;;;22.20;9.20;;;;;;;7.40;83.07;101369.56;103183;1310;24193;-60
2021/11/10 10:49:18;;;;;;;19.30;6.90;;;;;;;7.46;82.67;101369.27;103081;1314;24284;-59
2021/11/10 10:51:52;;;;;;;18.70;6.70;;;;;;;7.56;82.26;101366.05;103143;1312;25358;-59
2021/11/10 10:54:30;;;;;;;22.20;7.50;;;;;;;7.65;82.14;101365.89;103103;1312;23873;-60
2021/11/10 10:57:02;;;;;;;15.10;5.80;;;;;;;7.73;81.84;101362.53;103384;1312;23219;-60
2021/11/10 10:59:33;;;;;;;18.40;6.60;;;;;;;7.80;81.75;101354.98;103051;1310;22729;-60
2021/11/10 11:02:07;;;;;;;16.50;6.00;;;;;;;7.86;81.48;101353.42;103311;1312;22590;-60
2021/11/10 11:04:45;;;;;;;18.20;6.60;;;;;;;7.90;81.34;101357.52;103394;1310;24480;-60
2021/11/10 11:07:16;;;;;;;17.60;5.90;;;;;;;7.97;81.16;101347.02;103165;1309;22781;-60
2021/11/10 11:09:49;;;;;;;18.00;6.00;;;;;;;8.03;80.79;101348.13;103033;1309;25325;-60
2021/11/10 11:12:25;;;;;;;15.60;5.60;;;;;;;8.11;80.49;101347.30;103098;1313;26502;-60
2021/11/10 11:15:11;;;;;;;16.50;4.60;;;;;;;8.21;80.43;101345.06;103187;1313;25211;-58
2021/11/10 11:17:46;;;;;;;15.70;4.90;;;;;;;8.29;79.97;101333.14;103116;1310;22612;-59
2021/11/10 11:20:19;;;;;;;14.80;4.40;;;;;;;8.39;79.93;101333.34;103281;1313;23735;-60
2021/11/10 11:22:56;;;;;;;17.40;4.80;;;;;;;8.46;79.91;101331.50;103132;1316;25528;-59
2021/11/10 11:25:29;;;;;;;10.80;3.10;;;;;;;8.53;79.06;101331.44;103332;1313;24294;-58
2021/11/10 11:28:02;;;;;;;12.20;3.70;;;;;;;8.64;78.88;101323.02;103005;1313;25348;-61
2021/11/10 11:30:36;;;;;;;10.30;2.60;;;;;;;8.72;78.65;101324.48;103063;1313;22642;-57